Time;durP1;ratioP1;P1;durP2;ratioP2;P2;SDS_P1;SDS_P2;PMS_P1;PMS_P2;Temp;Humidity;BMP_temperature;BMP_pressure;BME280_temperature;BME280_humidity;BME280_pressure;Samples;Min_cycle;Max_cycle;Signal;HPM_P1;HPM_P2
2021/10/21 00:02:21;;;;;;;6.40;5.80;;;16.70;99.90;;;;;;5051322;28;20583;-64
2021/10/21 00:04:46;;;;;;;6.40;6.00;;;16.70;99.90;;;;;;5036745;28;20179;-64
2021/10/21 00:07:12;;;;;;;6.50;6.13;;;16.80;99.90;;;;;;5041982;28;20671;-64
2021/10/21 00:09:38;;;;;;;5.80;5.40;;;16.80;99.90;;;;;;5050979;28;20194;-64
2021/10/21 00:12:04;;;;;;;6.27;5.87;;;16.90;99.90;;;;;;5042376;28;20179;-64
2021/10/21 00:14:31;;;;;;;6.00;5.50;;;17.00;99.90;;;;;;5042423;28;20594;-63
2021/10/21 00:16:57;;;;;;;6.33;5.97;;;17.00;99.90;;;;;;5043640;28;20203;-64
2021/10/21 00:19:23;;;;;;;6.47;6.17;;;17.10;99.90;;;;;;5032158;28;20176;-63
2021/10/21 00:21:48;;;;;;;6.43;6.03;;;17.10;99.90;;;;;;5051291;28;20532;-64
2021/10/21 00:24:15;;;;;;;6.20;5.80;;;17.10;99.90;;;;;;5050884;28;20258;-64
2021/10/21 00:26:41;;;;;;;5.97;5.53;;;17.10;99.90;;;;;;5031219;28;20256;-65
2021/10/21 00:29:07;;;;;;;6.10;5.77;;;17.00;99.90;;;;;;5031036;28;20667;-65
2021/10/21 00:31:33;;;;;;;5.90;5.60;;;16.60;99.90;;;;;;5046588;28;20680;-64
2021/10/21 00:33:58;;;;;;;9.40;6.23;;;16.30;99.90;;;;;;5031253;28;20207;-64
2021/10/21 00:36:24;;;;;;;6.30;5.90;;;16.00;99.90;;;;;;5047280;28;20206;-65
2021/10/21 00:38:50;;;;;;;6.13;5.73;;;15.80;99.90;;;;;;5051046;28;20508;-63
2021/10/21 00:41:15;;;;;;;6.43;6.03;;;15.70;99.90;;;;;;5035905;28;20266;-64
2021/10/21 00:43:43;;;;;;;7.07;6.67;;;15.50;99.90;;;;;;5034948;28;20171;-64
2021/10/21 00:46:10;;;;;;;6.47;6.10;;;15.40;99.90;;;;;;5051067;28;20182;-63
2021/10/21 00:48:38;;;;;;;6.07;5.77;;;15.40;99.90;;;;;;5049233;28;20199;-64
2021/10/21 00:51:06;;;;;;;7.20;6.70;;;15.30;99.90;;;;;;5043628;28;20179;-63
2021/10/21 00:53:33;;;;;;;6.50;6.10;;;15.20;99.90;;;;;;5032323;28;20518;-64
2021/10/21 00:56:01;;;;;;;8.43;7.93;;;15.10;99.90;;;;;;5050863;28;20198;-63
2021/10/21 00:58:27;;;;;;;6.60;6.20;;;15.10;99.90;;;;;;5050126;28;20240;-63
2021/10/21 01:00:54;;;;;;;6.60;6.30;;;15.10;99.90;;;;;;5032202;28;20207;-63
2021/10/21 01:03:20;;;;;;;6.87;6.47;;;15.10;99.90;;;;;;5034369;28;20178;-63
2021/10/21 01:05:47;;;;;;;6.57;6.17;;;15.00;99.90;;;;;;5053399;28;20245;-63
2021/10/21 01:08:13;;;;;;;6.60;6.20;;;15.00;99.90;;;;;;5054259;28;20532;-64
2021/10/21 01:10:39;;;;;;;6.30;6.00;;;15.00;99.90;;;;;;5036318;28;20233;-63
2021/10/21 01:13:06;;;;;;;5.67;5.37;;;15.10;99.90;;;;;;5040748;28;20178;-63
2021/10/21 01:15:32;;;;;;;7.10;6.77;;;15.10;99.90;;;;;;5054168;28;20202;-63
2021/10/21 01:17:59;;;;;;;6.37;6.00;;;15.10;99.90;;;;;;5049012;28;20203;-64
2021/10/21 01:20:27;;;;;;;5.73;5.43;;;15.10;99.90;;;;;;5033952;28;20167;-64
2021/10/21 01:22:53;;;;;;;6.13;5.83;;;15.20;99.90;;;;;;5037720;28;20224;-64
2021/10/21 01:25:19;;;;;;;6.47;6.17;;;15.20;99.90;;;;;;5054077;28;20175;-66
2021/10/21 01:27:46;;;;;;;5.93;5.63;;;15.30;99.90;;;;;;5051588;28;20187;-65
2021/10/21 01:30:21;;;;;;;5.73;5.43;;;15.40;99.90;;;;;;5046568;28;20190;-64
2021/10/21 01:32:48;;;;;;;5.07;4.77;;;15.50;99.90;;;;;;5051891;28;20225;-65
2021/10/21 01:35:14;;;;;;;5.30;5.00;;;15.50;99.90;;;;;;5032459;28;20176;-64
2021/10/21 01:37:40;;;;;;;5.50;5.10;;;15.40;99.90;;;;;;5034990;28;20199;-65
2021/10/21 01:40:10;;;;;;;5.10;4.90;;;15.30;99.90;;;;;;5033733;28;20459;-64
2021/10/21 01:42:37;;;;;;;6.60;6.20;;;15.30;99.90;;;;;;5043805;28;20459;-65
2021/10/21 01:45:03;;;;;;;5.83;5.53;;;15.20;99.90;;;;;;5053661;28;20190;-64
2021/10/21 01:47:29;;;;;;;5.40;5.10;;;15.10;99.90;;;;;;5044553;28;20195;-64
2021/10/21 01:49:54;;;;;;;5.90;5.67;;;15.00;99.90;;;;;;5033449;28;20221;-64
2021/10/21 01:52:20;;;;;;;7.70;7.20;;;14.80;99.90;;;;;;5040265;28;20171;-64
2021/10/21 01:54:45;;;;;;;5.90;5.50;;;14.80;99.90;;;;;;5053595;28;20224;-64
2021/10/21 01:57:11;;;;;;;5.80;5.47;;;14.70;99.90;;;;;;5051716;28;20207;-63
2021/10/21 01:59:37;;;;;;;7.97;5.33;;;14.60;99.90;;;;;;5053112;28;20175;-65
2021/10/21 02:02:02;;;;;;;5.47;5.17;;;14.60;99.90;;;;;;5043720;28;20179;-65
2021/10/21 02:04:28;;;;;;;5.67;5.27;;;14.50;99.90;;;;;;5039056;28;20233;-64
2021/10/21 02:06:53;;;;;;;4.80;4.60;;;14.50;99.90;;;;;;5053961;28;20194;-66
2021/10/21 02:09:19;;;;;;;5.50;5.10;;;14.50;99.90;;;;;;5052323;28;20187;-69
2021/10/21 02:11:44;;;;;;;5.53;5.23;;;14.50;99.90;;;;;;5053804;28;20185;-68
2021/10/21 02:14:10;;;;;;;5.33;5.03;;;14.50;99.90;;;;;;5051794;28;20192;-67
2021/10/21 02:16:36;;;;;;;5.30;5.00;;;14.60;99.90;;;;;;5034191;28;20215;-68
2021/10/21 02:19:01;;;;;;;5.27;4.97;;;14.60;99.90;;;;;;5042492;28;20266;-67
2021/10/21 02:21:27;;;;;;;6.00;5.60;;;14.60;99.90;;;;;;5053823;28;20630;-68
2021/10/21 02:23:52;;;;;;;4.90;4.60;;;14.50;99.90;;;;;;5051429;28;20178;-68
2021/10/21 02:26:18;;;;;;;5.70;5.40;;;14.50;99.90;;;;;;5054024;28;20193;-69
2021/10/21 02:28:44;;;;;;;4.93;4.63;;;14.30;99.90;;;;;;5052259;28;20214;-67
2021/10/21 02:31:10;;;;;;;5.40;5.00;;;14.30;99.90;;;;;;5053471;28;20171;-68
2021/10/21 02:33:36;;;;;;;5.33;5.03;;;14.30;99.90;;;;;;5034176;28;20713;-69
2021/10/21 02:36:01;;;;;;;6.93;6.53;;;14.20;99.90;;;;;;5033911;28;20203;-68
2021/10/21 02:38:27;;;;;;;5.77;5.37;;;14.20;99.90;;;;;;5052065;28;20730;-67
2021/10/21 02:40:52;;;;;;;5.77;5.30;;;14.20;99.90;;;;;;5037210;28;20183;-68
2021/10/21 02:43:18;;;;;;;5.10;4.90;;;14.10;99.90;;;;;;5033763;28;20723;-69
2021/10/21 02:45:44;;;;;;;5.80;5.40;;;14.10;99.90;;;;;;5047767;28;20190;-66
2021/10/21 02:48:09;;;;;;;5.40;5.10;;;14.10;99.90;;;;;;5053711;28;20201;-69
2021/10/21 02:50:35;;;;;;;6.10;5.70;;;14.10;99.90;;;;;;5048233;28;20312;-66
2021/10/21 02:53:00;;;;;;;5.53;5.23;;;14.10;99.90;;;;;;5053729;28;20267;-68
2021/10/21 02:55:26;;;;;;;5.70;5.27;;;14.10;99.90;;;;;;5042337;28;20207;-66
2021/10/21 02:57:52;;;;;;;5.97;5.47;;;14.10;99.90;;;;;;5033505;28;20277;-67
2021/10/21 03:00:18;;;;;;;5.83;5.50;;;14.10;99.90;;;;;;5042515;28;20183;-67
2021/10/21 03:02:44;;;;;;;4.93;4.73;;;14.00;99.90;;;;;;5053576;28;20240;-68
2021/10/21 03:05:10;;;;;;;5.20;4.90;;;14.00;99.90;;;;;;5045316;28;20175;-68
2021/10/21 03:07:35;;;;;;;5.27;5.03;;;14.00;99.90;;;;;;5032999;28;20195;-66
2021/10/21 03:10:01;;;;;;;4.80;4.60;;;14.00;99.90;;;;;;5049578;28;20270;-66
2021/10/21 03:12:26;;;;;;;5.33;5.00;;;14.00;99.90;;;;;;5053129;28;20182;-66
2021/10/21 03:14:52;;;;;;;5.20;4.83;;;14.10;99.90;;;;;;5037939;28;20179;-69
2021/10/21 03:17:18;;;;;;;5.37;4.97;;;14.10;99.90;;;;;;5032882;28;20211;-67
2021/10/21 03:19:43;;;;;;;5.13;4.80;;;14.20;99.90;;;;;;5045933;28;20182;-68
2021/10/21 03:22:09;;;;;;;7.07;4.93;;;14.30;99.90;;;;;;5052802;28;20175;-67
2021/10/21 03:24:35;;;;;;;5.60;5.30;;;14.30;99.90;;;;;;5041208;28;20179;-67
2021/10/21 03:27:00;;;;;;;5.57;5.10;;;14.40;99.90;;;;;;5032778;28;20191;-69
2021/10/21 03:29:26;;;;;;;5.17;4.90;;;14.40;99.90;;;;;;5042146;28;20225;-66
2021/10/21 03:31:52;;;;;;;5.10;4.80;;;14.40;99.90;;;;;;5048487;28;20183;-67
2021/10/21 03:34:18;;;;;;;5.00;4.80;;;14.40;99.90;;;;;;5044471;28;20183;-68
2021/10/21 03:36:43;;;;;;;5.50;5.10;;;14.40;99.90;;;;;;5048840;28;20211;-67
2021/10/21 03:39:09;;;;;;;6.20;5.70;;;14.40;99.90;;;;;;5052544;28;20257;-65
2021/10/21 03:41:35;;;;;;;5.43;5.13;;;14.40;99.90;;;;;;5051715;28;20179;-69
2021/10/21 03:44:00;;;;;;;5.00;4.60;;;14.40;99.90;;;;;;5053084;28;20699;-67
2021/10/21 03:46:26;;;;;;;5.23;5.03;;;14.40;99.90;;;;;;5050269;28;20631;-68
2021/10/21 03:48:52;;;;;;;5.40;5.20;;;14.40;99.90;;;;;;5050890;28;20261;-68
2021/10/21 03:51:17;;;;;;;5.87;5.57;;;14.30;99.90;;;;;;5051926;28;20243;-68
2021/10/21 03:53:43;;;;;;;6.10;5.80;;;14.30;99.90;;;;;;5032699;28;20672;-68
2021/10/21 03:56:09;;;;;;;5.30;5.00;;;14.30;99.90;;;;;;5031445;28;20215;-69
2021/10/21 03:58:36;;;;;;;5.57;5.37;;;14.30;99.90;;;;;;5043740;28;20203;-63
2021/10/21 04:01:02;;;;;;;4.97;4.73;;;14.30;99.90;;;;;;5038829;28;20194;-62
2021/10/21 04:03:28;;;;;;;5.10;4.63;;;14.20;99.90;;;;;;5051038;28;20533;-62
2021/10/21 04:05:53;;;;;;;4.80;4.60;;;14.20;99.90;;;;;;5044751;28;20194;-62
2021/10/21 04:08:19;;;;;;;5.03;4.80;;;14.20;99.90;;;;;;5041027;22;20286;-63
2021/10/21 04:10:44;;;;;;;5.00;4.80;;;14.10;99.90;;;;;;5050844;28;20541;-63
2021/10/21 04:13:11;;;;;;;5.10;4.80;;;14.00;99.90;;;;;;5051429;28;20221;-62
2021/10/21 04:15:37;;;;;;;5.30;5.00;;;14.00;99.90;;;;;;5050713;28;20221;-63
2021/10/21 04:18:03;;;;;;;6.50;6.20;;;13.90;99.90;;;;;;5051317;28;20166;-61
2021/10/21 04:20:28;;;;;;;4.80;4.60;;;13.80;99.90;;;;;;5050796;28;20198;-62
2021/10/21 04:22:54;;;;;;;5.00;4.80;;;13.80;99.90;;;;;;5051236;28;20170;-62
2021/10/21 04:25:19;;;;;;;5.07;4.87;;;13.80;99.90;;;;;;5050835;28;20194;-62
2021/10/21 04:27:45;;;;;;;5.27;4.87;;;13.90;99.90;;;;;;5051081;28;20197;-62
2021/10/21 04:30:12;;;;;;;6.20;5.73;;;13.90;99.90;;;;;;5050106;28;20616;-63
2021/10/21 04:32:38;;;;;;;5.27;4.97;;;13.90;99.90;;;;;;5051143;28;20199;-62
2021/10/21 04:35:04;;;;;;;5.60;5.30;;;13.90;99.90;;;;;;5051250;28;20171;-63
2021/10/21 04:37:30;;;;;;;5.50;4.97;;;13.80;99.90;;;;;;5054768;28;20217;-63
2021/10/21 04:39:56;;;;;;;5.47;5.27;;;13.80;99.90;;;;;;5054324;28;20672;-63
2021/10/21 04:42:21;;;;;;;5.20;5.00;;;13.80;99.90;;;;;;5054436;28;20177;-63
2021/10/21 04:44:47;;;;;;;5.83;5.30;;;13.70;99.90;;;;;;5054988;28;20686;-63
2021/10/21 04:47:13;;;;;;;5.50;5.30;;;13.60;99.90;;;;;;5054383;28;20674;-62
2021/10/21 04:49:39;;;;;;;5.20;5.00;;;13.60;99.90;;;;;;5054574;28;20195;-64
2021/10/21 04:52:05;;;;;;;5.20;5.00;;;13.50;99.90;;;;;;5054744;28;20171;-64
2021/10/21 04:54:30;;;;;;;5.97;5.77;;;13.50;99.90;;;;;;5054604;28;20691;-63
2021/10/21 04:56:56;;;;;;;5.47;5.27;;;13.40;99.90;;;;;;5054520;28;20209;-63
2021/10/21 04:59:22;;;;;;;5.20;5.00;;;13.40;99.90;;;;;;5054097;28;20199;-63
2021/10/21 05:01:47;;;;;;;5.50;5.10;;;13.40;99.90;;;;;;5054467;28;20514;-62
2021/10/21 05:04:13;;;;;;;5.17;4.97;;;13.30;99.90;;;;;;5054255;28;20648;-63
2021/10/21 05:06:38;;;;;;;6.30;6.00;;;13.30;99.90;;;;;;5054662;28;20624;-63
2021/10/21 05:09:04;;;;;;;6.30;6.00;;;13.30;99.90;;;;;;5053758;28;20217;-62
2021/10/21 05:11:31;;;;;;;5.03;4.83;;;13.20;99.90;;;;;;5053590;28;20253;-63
2021/10/21 05:13:56;;;;;;;5.87;5.57;;;13.20;99.90;;;;;;5054241;28;20183;-63
2021/10/21 05:16:22;;;;;;;5.40;5.20;;;13.10;99.90;;;;;;5053611;28;20566;-63
2021/10/21 05:18:47;;;;;;;5.70;5.50;;;13.10;99.90;;;;;;5054245;28;20278;-63
2021/10/21 05:21:13;;;;;;;5.07;4.87;;;13.00;99.90;;;;;;5053682;28;20179;-63
2021/10/21 05:23:39;;;;;;;6.07;5.77;;;13.00;99.90;;;;;;5053874;28;20182;-63
2021/10/21 05:26:05;;;;;;;5.10;4.90;;;12.90;99.90;;;;;;5053986;28;20186;-63
2021/10/21 05:28:30;;;;;;;5.17;4.97;;;13.00;99.90;;;;;;5053559;28;20267;-62
2021/10/21 05:30:56;;;;;;;5.10;4.80;;;12.90;99.90;;;;;;5052803;28;20273;-63
2021/10/21 05:33:26;;;;;;;5.50;5.30;;;12.70;99.90;;;;;;5053260;28;20517;-63
2021/10/21 05:35:52;;;;;;;5.77;5.50;;;12.70;99.90;;;;;;5053837;28;20617;-63
2021/10/21 05:38:18;;;;;;;5.37;5.10;;;12.70;99.90;;;;;;5053499;28;20183;-64
2021/10/21 05:40:43;;;;;;;6.00;5.80;;;12.60;99.90;;;;;;5053285;28;20618;-63
2021/10/21 05:43:09;;;;;;;4.90;4.70;;;12.60;99.90;;;;;;5053594;28;20539;-64
2021/10/21 05:45:35;;;;;;;5.90;5.60;;;12.40;99.90;;;;;;5053294;28;20191;-64
2021/10/21 05:48:00;;;;;;;5.77;5.57;;;12.20;99.90;;;;;;5052806;28;20179;-64
2021/10/21 05:50:26;;;;;;;5.73;5.53;;;12.10;99.90;;;;;;5052940;28;20195;-64
2021/10/21 05:52:52;;;;;;;5.70;5.43;;;11.90;99.90;;;;;;5053616;28;20659;-63
2021/10/21 05:55:17;;;;;;;11.03;10.23;;;11.80;99.90;;;;;;5053405;28;20183;-64
2021/10/21 05:57:43;;;;;;;19.97;18.83;;;11.60;99.90;;;;;;5053142;28;20187;-64
2021/10/21 06:00:09;;;;;;;8.77;8.37;;;11.40;99.90;;;;;;5052960;28;20199;-64
2021/10/21 06:02:36;;;;;;;6.93;6.63;;;11.20;99.90;;;;;;5053093;28;20697;-63
2021/10/21 06:05:06;;;;;;;12.73;12.13;;;11.10;99.90;;;;;;5053558;28;20167;-65
2021/10/21 06:07:32;;;;;;;6.67;6.27;;;10.90;99.90;;;;;;5052969;28;20193;-65
2021/10/21 06:09:58;;;;;;;6.20;5.80;;;10.70;99.90;;;;;;5052603;28;20214;-64
2021/10/21 06:12:25;;;;;;;12.17;11.57;;;10.60;99.90;;;;;;5053002;28;20548;-65
2021/10/21 06:14:51;;;;;;;8.53;8.03;;;10.50;99.90;;;;;;5053200;28;20187;-64
2021/10/21 06:17:18;;;;;;;7.50;6.93;;;10.50;99.90;;;;;;5052586;28;20242;-64
2021/10/21 06:19:44;;;;;;;7.30;7.00;;;10.50;99.90;;;;;;5052593;28;20282;-64
2021/10/21 06:22:12;;;;;;;7.60;7.10;;;10.40;99.90;;;;;;5053095;28;20246;-64
2021/10/21 06:24:38;;;;;;;9.03;8.63;;;10.40;99.90;;;;;;5052586;28;20175;-63
2021/10/21 06:27:04;;;;;;;7.30;6.90;;;10.30;99.90;;;;;;5052744;28;20247;-65
2021/10/21 06:29:29;;;;;;;7.23;6.83;;;10.30;99.90;;;;;;5052081;28;20194;-65
2021/10/21 06:31:55;;;;;;;47.00;44.30;;;10.30;99.90;;;;;;5052790;28;20529;-65
2021/10/21 06:34:21;;;;;;;8.63;8.13;;;10.20;99.90;;;;;;5052491;28;20261;-65
2021/10/21 06:36:47;;;;;;;11.93;11.33;;;10.20;99.90;;;;;;5052762;28;20203;-64
2021/10/21 06:39:13;;;;;;;22.37;21.33;;;10.20;99.90;;;;;;5052170;28;20198;-65
2021/10/21 06:41:39;;;;;;;6.43;6.03;;;10.20;99.90;;;;;;5033957;28;20189;-65
2021/10/21 06:44:06;;;;;;;7.57;6.97;;;10.20;99.90;;;;;;5033485;28;20226;-65
2021/10/21 06:46:32;;;;;;;8.60;7.93;;;10.10;99.90;;;;;;5032407;28;20400;-67
2021/10/21 06:48:58;;;;;;;11.10;10.47;;;10.10;99.90;;;;;;5044080;28;20252;-65
2021/10/21 06:51:24;;;;;;;6.70;6.27;;;10.10;99.90;;;;;;5052033;28;20174;-66
2021/10/21 06:53:50;;;;;;;9.37;8.83;;;10.10;99.90;;;;;;5041455;28;20180;-63
2021/10/21 06:56:16;;;;;;;13.33;12.13;;;10.00;99.90;;;;;;5032108;28;20225;-66
2021/10/21 06:58:41;;;;;;;32.77;31.07;;;10.00;99.90;;;;;;5040240;28;20209;-66
2021/10/21 07:01:07;;;;;;;28.07;25.97;;;10.00;99.90;;;;;;5032403;28;20205;-66
2021/10/21 07:03:33;;;;;;;8.33;7.73;;;10.00;99.90;;;;;;5038287;28;20574;-64
2021/10/21 07:05:58;;;;;;;8.37;7.53;;;10.00;99.90;;;;;;5052047;28;20171;-66
2021/10/21 07:08:26;;;;;;;6.60;6.00;;;10.00;99.90;;;;;;5046666;28;20202;-66
2021/10/21 07:10:52;;;;;;;7.63;7.23;;;10.00;99.90;;;;;;5031867;28;20602;-66
2021/10/21 07:13:18;;;;;;;7.33;6.80;;;10.00;99.90;;;;;;5034911;28;20174;-66
2021/10/21 07:15:43;;;;;;;6.67;6.37;;;9.90;99.90;;;;;;5051789;28;20203;-66
2021/10/21 07:18:09;;;;;;;6.77;6.33;;;9.90;99.90;;;;;;5050326;28;20178;-66
2021/10/21 07:20:35;;;;;;;24.43;23.17;;;9.90;99.90;;;;;;5013758;28;20179;-65
2021/10/21 07:23:01;;;;;;;11.17;10.67;;;9.90;99.90;;;;;;5042988;28;20660;-65
2021/10/21 07:25:28;;;;;;;7.13;6.83;;;9.90;99.90;;;;;;5031735;28;20241;-72
2021/10/21 07:27:55;;;;;;;24.20;22.97;;;10.00;99.90;;;;;;5047468;28;20210;-65
2021/10/21 07:30:21;;;;;;;7.27;6.73;;;10.00;99.90;;;;;;5051140;28;20660;-66
2021/10/21 07:32:47;;;;;;;9.80;9.30;;;9.90;99.90;;;;;;5037160;28;20214;-65
2021/10/21 07:35:13;;;;;;;7.23;6.60;;;9.90;99.90;;;;;;5030495;28;20246;-66
2021/10/21 07:37:39;;;;;;;7.37;7.00;;;9.80;99.90;;;;;;5024780;28;20214;-66
2021/10/21 07:40:06;;;;;;;6.40;6.10;;;9.70;99.90;;;;;;5039439;28;20197;-66
2021/10/21 07:42:34;;;;;;;8.63;7.97;;;9.60;99.90;;;;;;5051139;28;20619;-66
2021/10/21 07:45:00;;;;;;;7.87;7.57;;;9.60;99.90;;;;;;5051298;28;20577;-66
2021/10/21 07:47:25;;;;;;;6.47;6.17;;;9.60;99.90;;;;;;5051244;28;20645;-66
2021/10/21 07:49:51;;;;;;;7.20;6.73;;;9.60;99.90;;;;;;5050761;28;20281;-66
2021/10/21 07:52:17;;;;;;;6.30;6.00;;;9.70;99.90;;;;;;5033540;28;20225;-66
2021/10/21 07:54:46;;;;;;;7.07;6.43;;;9.70;99.90;;;;;;5050957;28;20650;-66
2021/10/21 07:57:15;;;;;;;9.80;8.37;;;9.80;99.90;;;;;;5051365;28;20552;-67
2021/10/21 07:59:41;;;;;;;8.13;7.43;;;9.90;99.90;;;;;;5050659;28;20285;-66
2021/10/21 08:02:07;;;;;;;6.97;6.40;;;10.00;99.90;;;;;;5033664;28;20178;-66
2021/10/21 08:04:33;;;;;;;7.13;6.27;;;10.10;99.90;;;;;;5050967;28;20581;-66
2021/10/21 08:07:00;;;;;;;10.97;6.93;;;10.20;99.90;;;;;;5031524;28;20183;-65
2021/10/21 08:09:28;;;;;;;6.80;6.20;;;10.30;99.90;;;;;;5030684;28;20215;-66
2021/10/21 08:11:54;;;;;;;7.80;7.07;;;10.40;99.90;;;;;;5054282;28;20178;-66
2021/10/21 08:14:20;;;;;;;7.20;6.60;;;10.60;99.90;;;;;;5037187;28;20232;-66
2021/10/21 08:16:47;;;;;;;6.77;6.20;;;10.80;99.90;;;;;;5055533;28;20301;-66
2021/10/21 08:19:13;;;;;;;6.97;6.33;;;10.90;99.90;;;;;;5054791;28;20385;-66
2021/10/21 08:21:39;;;;;;;6.07;5.67;;;10.90;99.90;;;;;;5054977;28;20181;-65
2021/10/21 08:24:08;;;;;;;8.13;7.43;;;11.00;99.90;;;;;;5055025;28;20183;-65
2021/10/21 08:26:37;;;;;;;7.40;6.80;;;11.10;99.90;;;;;;5054883;28;20182;-66
2021/10/21 08:29:03;;;;;;;6.93;6.17;;;11.10;99.90;;;;;;5054705;28;20563;-66
2021/10/21 08:31:29;;;;;;;8.37;6.43;;;11.30;99.90;;;;;;5054674;28;20183;-65
2021/10/21 08:33:55;;;;;;;7.10;6.50;;;11.50;99.90;;;;;;5036938;28;20194;-65
2021/10/21 08:36:22;;;;;;;8.57;7.13;;;11.60;99.90;;;;;;5054727;28;20633;-66
2021/10/21 08:38:52;;;;;;;6.30;5.77;;;11.70;99.90;;;;;;5054502;28;20199;-66
2021/10/21 08:41:19;;;;;;;6.10;5.73;;;11.80;99.90;;;;;;5054414;28;20175;-65
2021/10/21 08:43:45;;;;;;;6.20;5.90;;;11.80;99.90;;;;;;5054668;28;20206;-66
2021/10/21 08:46:15;;;;;;;6.27;5.77;;;11.80;99.90;;;;;;5054568;28;20174;-66
2021/10/21 08:48:44;;;;;;;12.07;6.37;;;11.90;99.90;;;;;;5054502;28;20680;-65
2021/10/21 08:51:10;;;;;;;6.60;6.00;;;12.10;99.90;;;;;;5054140;28;20183;-66
2021/10/21 08:53:36;;;;;;;6.50;6.00;;;12.30;99.90;;;;;;5045527;28;20722;-65
2021/10/21 08:56:04;;;;;;;7.27;6.53;;;12.50;99.90;;;;;;5033227;28;20692;-63
2021/10/21 08:58:30;;;;;;;6.23;5.70;;;12.60;99.90;;;;;;5052546;28;20199;-65
2021/10/21 09:01:01;;;;;;;5.97;5.37;;;13.00;99.90;;;;;;5053932;28;20167;-66
2021/10/21 09:04:38;;;;;;;5.70;5.40;;;13.40;99.90;;;;;;5034191;28;20262;-65
2021/10/21 09:06:49;;;;;;;5.87;5.47;;;13.70;99.90;;;;;;5030566;28;20186;-65
2021/10/21 09:09:26;;;;;;;6.10;5.47;;;13.90;99.90;;;;;;5054005;28;20256;-66
2021/10/21 09:12:13;;;;;;;5.87;5.40;;;14.30;99.90;;;;;;5053623;28;20183;-65
2021/10/21 09:14:47;;;;;;;5.70;5.40;;;14.70;99.90;;;;;;5035894;28;20699;-65
2021/10/21 09:17:14;;;;;;;5.40;5.00;;;14.90;99.90;;;;;;5053911;28;20210;-65
2021/10/21 09:19:41;;;;;;;6.10;5.70;;;14.90;99.90;;;;;;5053154;28;20252;-65
2021/10/21 09:22:24;;;;;;;6.07;5.50;;;14.60;99.90;;;;;;5053606;28;20179;-65
2021/10/21 09:24:50;;;;;;;5.37;4.97;;;14.20;99.90;;;;;;5053659;28;20179;-65
2021/10/21 09:27:16;;;;;;;5.80;5.30;;;14.20;99.90;;;;;;5053645;28;20598;-66
2021/10/21 09:29:48;;;;;;;5.60;5.30;;;14.10;99.90;;;;;;5035034;28;20238;-66
2021/10/21 09:32:27;;;;;;;4.90;4.60;;;14.00;99.90;;;;;;5053543;28;20648;-65
2021/10/21 09:34:53;;;;;;;5.77;5.37;;;14.10;99.90;;;;;;5053462;28;20182;-66
2021/10/21 09:37:44;;;;;;;5.50;5.00;;;14.10;99.90;;;;;;5053265;28;20668;-65
2021/10/21 09:40:15;;;;;;;5.20;4.90;;;13.90;99.90;;;;;;5052941;28;20199;-64
2021/10/21 09:42:44;;;;;;;5.20;4.80;;;13.80;99.90;;;;;;5053217;28;20206;-66
2021/10/21 09:45:09;;;;;;;6.77;6.37;;;14.00;99.90;;;;;;5053444;28;20546;-65
2021/10/21 09:47:37;;;;;;;5.63;5.20;;;14.30;99.90;;;;;;5052417;28;20171;-66
2021/10/21 09:50:16;;;;;;;4.63;4.33;;;14.70;99.90;;;;;;5052490;28;20195;-66
2021/10/21 09:52:42;;;;;;;5.23;4.83;;;14.80;99.90;;;;;;5052770;28;20757;-65
2021/10/21 09:55:10;;;;;;;5.70;5.27;;;14.70;99.90;;;;;;5053569;28;20202;-65
2021/10/21 09:57:36;;;;;;;5.37;4.97;;;14.90;99.90;;;;;;5052654;28;20293;-65
2021/10/21 10:00:07;;;;;;;5.87;5.57;;;14.80;99.90;;;;;;5052743;28;20625;-65
2021/10/21 10:02:33;;;;;;;6.87;5.03;;;14.60;99.90;;;;;;5052701;28;20190;-65
2021/10/21 10:05:04;;;;;;;5.10;4.90;;;14.60;99.90;;;;;;5052901;28;20247;-65
2021/10/21 10:07:35;;;;;;;5.30;4.90;;;14.30;99.90;;;;;;5052776;28;20190;-66
2021/10/21 10:10:03;;;;;;;5.40;4.90;;;13.90;99.90;;;;;;5088508;22;20568;-66
2021/10/21 10:12:32;;;;;;;5.83;5.37;;;13.70;99.90;;;;;;5072912;28;20292;-67
2021/10/21 10:14:59;;;;;;;9.33;6.67;;;13.70;99.90;;;;;;5054599;28;20185;-66
2021/10/21 10:17:27;;;;;;;5.57;5.07;;;13.60;99.90;;;;;;5062267;28;20299;-67
2021/10/21 10:19:54;;;;;;;6.03;5.43;;;13.50;99.90;;;;;;5072341;28;20541;-67
2021/10/21 10:22:35;;;;;;;5.40;5.10;;;13.50;99.90;;;;;;5064147;28;20174;-67
2021/10/21 10:25:18;;;;;;;5.87;5.27;;;13.60;99.90;;;;;;5052900;28;20171;-67
2021/10/21 10:28:00;;;;;;;6.07;5.37;;;13.60;99.90;;;;;;5057527;28;20174;-66
2021/10/21 10:30:47;;;;;;;5.63;5.20;;;13.60;99.90;;;;;;5052324;28;20191;-66
2021/10/21 10:33:33;;;;;;;6.20;5.60;;;13.70;99.90;;;;;;5052277;28;20178;-66
2021/10/21 10:36:21;;;;;;;7.20;6.60;;;13.60;99.90;;;;;;5054627;28;20327;-67
2021/10/21 10:38:47;;;;;;;7.00;6.40;;;13.60;99.90;;;;;;5072949;28;20170;-65
2021/10/21 10:41:13;;;;;;;6.33;6.03;;;13.50;99.90;;;;;;5068651;28;20636;-65
2021/10/21 10:43:41;;;;;;;6.93;6.40;;;13.60;99.90;;;;;;5052631;28;20220;-68
2021/10/21 10:46:11;;;;;;;6.87;6.37;;;13.60;99.90;;;;;;5054116;28;20171;-66
2021/10/21 10:48:46;;;;;;;11.77;6.37;;;13.40;99.90;;;;;;5072292;28;20178;-66
2021/10/21 10:51:12;;;;;;;7.10;6.50;;;13.10;99.90;;;;;;5069901;28;20240;-66
2021/10/21 10:53:50;;;;;;;5.47;5.00;;;13.00;99.90;;;;;;5052082;28;20189;-67
2021/10/21 10:56:37;;;;;;;5.93;5.37;;;12.90;99.90;;;;;;5053997;28;20194;-67
2021/10/21 10:59:17;;;;;;;5.87;5.47;;;13.00;99.90;;;;;;5071958;28;20186;-67
2021/10/21 11:01:43;;;;;;;6.10;5.70;;;13.20;99.90;;;;;;5067095;28;20167;-67
2021/10/21 11:04:08;;;;;;;5.97;5.30;;;13.50;99.90;;;;;;5053004;28;20194;-67
2021/10/21 11:06:34;;;;;;;6.87;6.33;;;14.00;99.90;;;;;;5071850;28;20183;-67
2021/10/21 11:09:06;;;;;;;6.73;5.43;;;14.30;99.90;;;;;;5071085;28;20330;-67
2021/10/21 11:11:42;;;;;;;5.70;5.30;;;14.60;99.90;;;;;;5051800;28;20182;-66
2021/10/21 11:14:13;;;;;;;4.70;4.50;;;14.80;99.90;;;;;;5052150;28;20166;-66
2021/10/21 11:16:48;;;;;;;6.70;6.10;;;14.90;99.90;;;;;;5051848;28;20582;-67
2021/10/21 11:19:41;;;;;;;6.07;5.10;;;14.90;99.90;;;;;;5051966;28;20651;-66
2021/10/21 11:22:08;;;;;;;5.70;4.90;;;14.60;99.90;;;;;;5052074;28;20170;-66
2021/10/21 11:24:43;;;;;;;6.07;5.63;;;14.50;99.90;;;;;;5071914;28;20177;-66
2021/10/21 11:27:10;;;;;;;6.07;5.43;;;14.40;99.90;;;;;;5071655;28;20235;-66
2021/10/21 11:29:36;;;;;;;5.40;5.10;;;14.30;99.90;;;;;;5051248;28;20659;-68
2021/10/21 11:32:06;;;;;;;5.33;4.87;;;14.10;99.90;;;;;;5051574;28;20171;-67
2021/10/21 11:34:32;;;;;;;5.80;5.30;;;14.10;99.90;;;;;;5069067;28;20186;-66
2021/10/21 11:36:57;;;;;;;6.40;6.00;;;13.80;99.90;;;;;;5071705;28;20198;-67
2021/10/21 11:39:37;;;;;;;6.00;5.50;;;13.40;99.90;;;;;;5069398;28;20252;-66
2021/10/21 11:42:04;;;;;;;5.40;5.10;;;13.00;99.90;;;;;;5071789;28;20211;-67
2021/10/21 11:44:30;;;;;;;6.13;5.60;;;12.60;99.90;;;;;;5051444;28;20719;-67
2021/10/21 11:47:00;;;;;;;6.57;5.90;;;12.40;99.90;;;;;;5051280;28;20254;-67
2021/10/21 11:49:27;;;;;;;5.60;5.30;;;12.20;99.90;;;;;;5063081;28;20567;-67
2021/10/21 11:52:07;;;;;;;6.00;5.60;;;12.10;99.90;;;;;;5051506;28;20721;-66
2021/10/21 11:54:33;;;;;;;6.17;5.87;;;11.60;99.90;;;;;;5051633;28;20171;-68
2021/10/21 11:57:00;;;;;;;7.33;6.73;;;11.00;99.90;;;;;;5068845;28;20198;-67
2021/10/21 11:59:52;;;;;;;7.07;6.77;;;10.70;99.90;;;;;;5071144;28;20182;-67
2021/10/21 12:02:18;;;;;;;6.27;5.63;;;10.40;99.90;;;;;;5048971;28;20527;-67
2021/10/21 12:04:46;;;;;;;6.50;6.20;;;10.20;99.90;;;;;;5051282;28;20213;-67
2021/10/21 12:07:12;;;;;;;7.80;7.40;;;10.00;99.90;;;;;;5069771;28;20280;-66
2021/10/21 12:09:40;;;;;;;8.70;6.00;;;9.90;99.90;;;;;;5069907;28;20240;-68
2021/10/21 12:12:07;;;;;;;7.90;7.13;;;9.90;99.90;;;;;;5052996;28;20270;-67
2021/10/21 12:14:35;;;;;;;6.77;6.27;;;9.90;99.90;;;;;;5055783;28;20268;-68
2021/10/21 12:17:01;;;;;;;6.33;6.03;;;9.90;99.90;;;;;;5071386;28;20205;-68
2021/10/21 12:19:29;;;;;;;6.77;6.30;;;9.80;99.90;;;;;;5067306;28;20258;-67
2021/10/21 12:22:13;;;;;;;6.40;6.10;;;9.80;99.90;;;;;;5051375;28;20190;-68
2021/10/21 12:24:42;;;;;;;6.60;6.30;;;9.80;99.90;;;;;;5056159;28;20174;-68
2021/10/21 12:27:08;;;;;;;7.40;7.00;;;9.70;99.90;;;;;;5071858;28;20198;-68
2021/10/21 12:29:43;;;;;;;7.97;7.57;;;9.60;99.90;;;;;;5067353;28;20205;-68
2021/10/21 12:32:14;;;;;;;6.90;6.40;;;9.60;99.90;;;;;;5051069;28;20220;-67
2021/10/21 12:34:41;;;;;;;6.60;6.30;;;9.60;99.90;;;;;;5062570;28;20264;-67
2021/10/21 12:37:14;;;;;;;6.73;6.43;;;9.70;99.90;;;;;;5070541;28;20273;-67
2021/10/21 12:39:39;;;;;;;6.83;6.50;;;9.70;99.90;;;;;;5059477;28;20285;-67
2021/10/21 12:42:08;;;;;;;6.70;6.40;;;9.60;99.90;;;;;;5050468;28;20278;-67
2021/10/21 12:44:36;;;;;;;7.73;7.43;;;9.60;99.90;;;;;;5060341;28;20194;-67
2021/10/21 12:47:22;;;;;;;6.77;6.37;;;9.50;99.90;;;;;;5070589;28;20170;-68
2021/10/21 12:50:01;;;;;;;6.60;6.30;;;9.40;99.90;;;;;;5059604;28;20606;-67
2021/10/21 12:52:32;;;;;;;6.60;6.30;;;9.50;99.90;;;;;;5050945;28;20202;-66